LEBL/BCN METAR and TAF weather

Enter ICAO airport designator
Station Type Date Time Source
LEBL METAR 2019/08/22 05:00 UTC NOAA

LEBL 220500Z 30004KT 9999 FEW035 23/20 Q1019 NOSIG


Station Type Date Time Source
LEBL Decoded METAR 2019/08/22 05:00 UTC NOAA

Station name not available
Aug 22, 2019 - 01:00 AM EDT / 2019.08.22 0500 UTC
Wind: from the WNW (300 degrees) at 5 MPH (4 KT):0
Visibility: greater than 7 mile(s):0
Sky conditions: mostly clear
Temperature: 73 F (23 C)
Dew Point: 68 F (20 C)
Relative Humidity: 83%
Pressure (altimeter): 30.09 in. Hg (1019 hPa)
ob: LEBL 220500Z 30004KT 9999 FEW035 23/20 Q1019 NOSIG
cycle: 5

Station Type Date Time Source
LEBL TAF 2019/08/21 18:27 UTC NOAA

TAF LEBL 211700Z 2118/2218 21012KT 9999 FEW035 TX30/2212Z TN22/2206Z
BECMG 2119/2122 32005KT
TEMPO 2200/2212 4000 SHRA FEW050CB PROB30
TEMPO 2200/2206 TSRA FEW040CB
BECMG 2208/2210 19010KT

Example: see airport list